Ponderosa High School (Parker), Colorado
Current Conditions -  °F | °C
As of 2:53 PM on Tuesday 25 Nov 2014 (Local Time) from KAPA Reporting Station
Broken Clouds Broken Clouds  
Wind Chill: 37°   Ceiling: 20000
Heat Index: 45°   Visibility: 10mi
Dew Point: 17°   Wind: 18mph
Humidity: 33%   Direction: 340°NNW
Pressure: 29.89"   Gusts: NA
Location:  39.43627°N, 104.7562°W
Report Text: KAPA 252153Z 34016KT 10SM FEW100 SCT140 BKN200 07/M08 A2989 RMK AO2 SLP142 T00721083
Loading
Personal Weather Stations






























Interactive Weather Map New forecast layout! Learn more

10-Day Weather Forecast

Advertisements
Track Severe Weather on mobile